»·PEaware :: ASA423 KPDX-KSEA

ASA423 :: KPDX-KSEA

FLIGHT INFORMATION

Flight Status: Arrived
Operator:
Alaska Airlines
More flights by this operator :: More flights under this callsign
Pilot: Ben F. (2808)
Aircraft: BOEING 737-800
(B738)
More flights by this aircraft type
Origin: KPDX Portland Intl
United States
Destination: KSEA Seattle-Tacoma Intl
United States
More flights between these airports :: More routes between these airports
Route: +PTLD BTG COUGA KRIEG HAWKZ6
File this flight plan on PilotEdge
Remarks:
Altitude:
(Current/Filed)
20,000ft
Speed:
(Current/Filed)
377kts
Departed: 05-Jul-18 07:11 PM
Arrived: 05-Jul-18 07:40 PM
Distance/Time
Traveled:
112nm/0:29
Distance/Time
To Go:
Arrived

Flight Plot

Page will automatically refresh every two minutes.

Flight plan parsing failed; only flown route is shown


Map Options




Map Legend


Flown Route
Filed Route
Departure Airport
Arrival Airport
Navaid (VOR, NDB)
Fix

Horizontal Profiles

Position Reports

Time Latitude Longitude Heading Altitude Ground
Speed
05-Jul-18 18:47 45.588605 -122.596930 0 39ft 0kts
05-Jul-18 18:48 45.588605 -122.596930 0 39ft 0kts
05-Jul-18 18:49 45.588605 -122.596930 0 39ft 0kts
05-Jul-18 18:50 45.588605 -122.596930 0 39ft 0kts
05-Jul-18 18:51 45.588605 -122.596930 0 39ft 0kts
05-Jul-18 18:52 45.588605 -122.596930 0 39ft 0kts
05-Jul-18 18:53 45.588605 -122.596930 0 39ft 0kts
05-Jul-18 18:54 45.588605 -122.596930 0 39ft 0kts
05-Jul-18 18:55 45.588605 -122.596930 0 39ft 0kts
05-Jul-18 18:56 45.588605 -122.596930 0 39ft 0kts
05-Jul-18 18:57 45.588605 -122.596930 0 39ft 0kts
05-Jul-18 18:58 45.588605 -122.596930 0 39ft 0kts
05-Jul-18 18:59 45.588605 -122.596930 0 39ft 0kts
05-Jul-18 19:00 45.588605 -122.596930 0 39ft 0kts
05-Jul-18 19:01 45.588293 -122.596975 17 39ft 2kts
05-Jul-18 19:02 45.587946 -122.597559 115 39ft 2kts
05-Jul-18 19:03 45.588086 -122.597937 118 39ft 0kts
05-Jul-18 19:04 45.588085 -122.597935 118 39ft 0kts
05-Jul-18 19:05 45.586782 -122.596687 125 39ft 16kts
05-Jul-18 19:06 45.584014 -122.589756 119 39ft 8kts
05-Jul-18 19:07 45.581797 -122.583975 119 39ft 13kts
05-Jul-18 19:08 45.581539 -122.583603 165 39ft 0kts
05-Jul-18 19:09 45.581539 -122.583603 165 39ft 0kts
05-Jul-18 19:10 45.581539 -122.583603 165 39ft 0kts
05-Jul-18 19:11 45.581539 -122.583603 165 39ft 0kts
05-Jul-18 19:12 45.582761 -122.589650 298 39ft 83kts
05-Jul-18 19:13 45.602430 -122.643409 299 2107ft 179kts
05-Jul-18 19:14 45.651252 -122.689974 357 4051ft 271kts
05-Jul-18 19:15 45.729820 -122.687887 359 7605ft 291kts
05-Jul-18 19:16 45.814170 -122.685307 0 10638ft 321kts
05-Jul-18 19:17 45.908994 -122.682586 0 13320ft 355kts
05-Jul-18 19:18 46.010800 -122.679676 0 16070ft 377kts
05-Jul-18 19:19 46.118265 -122.681425 350 18627ft 395kts
05-Jul-18 19:20 46.229956 -122.704292 349 20174ft 421kts
05-Jul-18 19:21 46.354082 -122.725500 355 20174ft 454kts
05-Jul-18 19:22 46.477122 -122.728423 357 19777ft 432kts
05-Jul-18 19:23 46.596265 -122.732200 357 18040ft 424kts
05-Jul-18 19:24 46.712502 -122.736346 357 16282ft 414kts
05-Jul-18 19:25 46.819783 -122.702243 36 14798ft 391kts
05-Jul-18 19:26 46.899071 -122.606094 41 13497ft 349kts
05-Jul-18 19:27 46.980545 -122.541859 17 12172ft 332kts
05-Jul-18 19:28 47.066809 -122.505679 17 11402ft 322kts
05-Jul-18 19:29 47.157120 -122.485896 6 10269ft 325kts
05-Jul-18 19:30 47.244059 -122.471863 5 9342ft 306kts
05-Jul-18 19:31 47.325671 -122.459396 4 8328ft 284kts
05-Jul-18 19:32 47.404014 -122.455034 357 7234ft 282kts
05-Jul-18 19:33 47.480141 -122.455331 358 6323ft 258kts
05-Jul-18 19:34 47.548987 -122.454151 359 5321ft 240kts
05-Jul-18 19:35 47.614097 -122.447253 29 4186ft 234kts
05-Jul-18 19:36 47.618480 -122.367023 108 3353ft 197kts
05-Jul-18 19:37 47.590452 -122.309925 175 2927ft 173kts
05-Jul-18 19:38 47.544849 -122.310278 181 2029ft 160kts
05-Jul-18 19:39 47.499039 -122.310703 179 1149ft 167kts
05-Jul-18 19:40 47.454276 -122.311080 182 441ft 135kts
05-Jul-18 19:41 47.444344 -122.309243 150 441ft 0kts
05-Jul-18 19:41 47.444332 -122.309232 149 441ft 2kts
05-Jul-18 19:42 47.441706 -122.306323 181 441ft 13kts
05-Jul-18 19:43 47.441238 -122.304478 89 441ft 0kts
05-Jul-18 19:44 47.441238 -122.304478 89 441ft 0kts

Navigation Log

Ident Type
Flight plan parsing failed, navigation log unavailable